M I D A S
Marine Information and Data Acquisition System
Tripno 1868 of the Zeeleeuw from 2010-04-26 10:11:46 to 2010-04-26 14:43:17
Back to CruiseResearch ActivitiesStationsMapUnderway DataData graphs

EquipmentUnitsComment
TimeDGPSUTC
LatitudeDGPSDM.mWGS84
LongitudeDGPSDM.mWGS84
HeadingGyrodeg 
SOGDGPSknotsSpeed over ground
COGDGPSdegCourse over ground
DepthEcho soundermeters200 kHz
Missing or incorrect values are displayed as -999
Navigation data collected by the RV Zeeleeuw from 2010-04-26 07:09:07 to 2010-04-26 15:02:00
Time Latitude Longitude Heading SOG COG Depth
2010-04-26 07:10:15 51°13.683 2°55.857 104.4 4.2 285 -999
2010-04-26 07:11:15 51°13.693 2°55.766 89.4 1.9 273 -999
2010-04-26 07:12:15 51°13.696 2°55.766 43.6 0.9 222 -999
2010-04-26 07:13:15 51°13.7 2°55.759 5.6 2.2 4 4.8
2010-04-26 07:14:15 51°13.748 2°55.719 327.8 3.9 328 11.1
2010-04-26 07:15:15 51°13.826 2°55.643 329.3 6.1 329 -999
2010-04-26 07:16:15 51°13.903 2°55.566 328.2 4.8 328 -999
2010-04-26 07:17:13 51°13.959 2°55.508 324.4 3.7 324 10.6
2010-04-26 07:18:12 51°13.996 2°55.459 322 1.6 325 6.4
2010-04-26 07:19:11 51°14.004 2°55.453 339.8 0.1 55 5.9
2010-04-26 07:20:11 51°14.003 2°55.451 344.9 0.1 250 5.8
2010-04-26 07:21:11 51°14.005 2°55.452 349.4 -999 234 6.1
2010-04-26 07:22:11 51°14.005 2°55.451 346.4 -999 348 6
2010-04-26 07:23:11 51°14.005 2°55.452 347 -999 109 6
2010-04-26 07:24:11 51°14.004 2°55.451 346.5 -999 266 6
2010-04-26 07:25:11 51°14.003 2°55.448 346.7 -999 278 6
2010-04-26 07:26:11 51°14.003 2°55.45 346.6 -999 332 6
2010-04-26 07:27:11 51°14.004 2°55.45 346.6 -999 266 6
2010-04-26 07:28:11 51°14.004 2°55.45 346.8 -999 256 6.1
2010-04-26 07:29:11 51°14.004 2°55.451 347 -999 265 6.1
2010-04-26 07:30:11 51°14.004 2°55.451 347.4 -999 279 6.2
2010-04-26 07:31:11 51°14.004 2°55.451 347.5 -999 144 6.2
2010-04-26 07:32:11 51°14.004 2°55.451 347.1 -999 88 6.1
2010-04-26 07:33:11 51°14.004 2°55.451 346.9 -999 54 6.2
2010-04-26 07:34:12 51°14.005 2°55.452 347.5 -999 190 6.2
2010-04-26 07:35:12 51°14.005 2°55.452 346.8 -999 277 6.2
2010-04-26 07:36:11 51°14.005 2°55.452 347.4 -999 43 6.2
2010-04-26 07:37:12 51°14.005 2°55.451 347 0.1 253 6.2
2010-04-26 07:38:11 51°14.005 2°55.452 347 -999 203 6.2
2010-04-26 07:39:11 51°14.004 2°55.451 347 -999 61 6.2
2010-04-26 07:40:11 51°14.004 2°55.452 347.1 -999 230 6.3
2010-04-26 07:41:11 51°14.004 2°55.452 347.2 -999 69 6.3
2010-04-26 07:42:11 51°14.004 2°55.452 347 -999 81 6.3
2010-04-26 07:43:11 51°14.004 2°55.453 347.1 -999 244 6.3
2010-04-26 07:44:11 51°14.004 2°55.453 347.4 -999 303 6.3
2010-04-26 07:45:11 51°14.004 2°55.452 347 -999 245 6.3
2010-04-26 07:46:12 51°14.004 2°55.452 347.1 -999 242 6.4
2010-04-26 07:47:11 51°14.004 2°55.453 347.1 -999 263 6.4
2010-04-26 07:48:11 51°14.004 2°55.452 347 -999 70 6.4
2010-04-26 07:49:11 51°14.004 2°55.452 347.3 0.1 46 6.4
2010-04-26 07:50:12 51°14.004 2°55.452 347 -999 45 6.4
2010-04-26 07:51:11 51°14.004 2°55.451 347.7 0.1 241 6.5
2010-04-26 07:52:28 51°14.004 2°55.451 347 -999 143 6.5
2010-04-26 07:53:58 51°14.005 2°55.452 347.7 -999 264 6.6
2010-04-26 07:55:13 51°14.005 2°55.451 347 -999 230 6.5
2010-04-26 07:56:13 51°14.004 2°55.451 347.2 -999 275 6.6
2010-04-26 07:57:13 51°14.004 2°55.451 346.8 -999 334 6.6
2010-04-26 07:58:13 51°14.004 2°55.451 347.2 -999 261 6.7
2010-04-26 07:59:13 51°14.005 2°55.451 347.7 0.1 246 6.7
2010-04-26 08:00:13 51°14.005 2°55.452 347 -999 157 6.6
2010-04-26 08:01:13 51°14.005 2°55.452 347.7 -999 193 6.7
2010-04-26 08:02:13 51°14.005 2°55.451 347.3 -999 110 6.7
2010-04-26 08:03:13 51°14.005 2°55.451 347.3 0.1 105 6.7
2010-04-26 08:04:13 51°14.005 2°55.451 346.7 -999 116 6.7
2010-04-26 08:05:12 51°14.005 2°55.451 346.8 -999 64 6.7
2010-04-26 08:06:13 51°14.004 2°55.451 346.6 -999 114 6.7
2010-04-26 08:07:12 51°14.004 2°55.451 346.9 -999 126 6.8
2010-04-26 08:08:13 51°14.005 2°55.451 347 -999 129 6.9
2010-04-26 08:09:13 51°14.005 2°55.451 347 -999 70 6.8
2010-04-26 08:10:13 51°14.005 2°55.451 346.5 -999 172 6.8
2010-04-26 08:11:13 51°14.004 2°55.451 346.7 -999 99 6.9
2010-04-26 08:12:12 51°14.004 2°55.452 346.9 -999 207 7
2010-04-26 08:13:13 51°14.004 2°55.452 346.3 0.1 65 6.9
2010-04-26 08:14:13 51°14.004 2°55.452 346.3 -999 46 6.9
2010-04-26 08:15:13 51°14.004 2°55.452 346.7 -999 262 7
2010-04-26 08:16:13 51°14.004 2°55.452 346.5 0.1 100 7.1
2010-04-26 08:17:13 51°14.004 2°55.452 346.5 0.1 251 -999
2010-04-26 08:18:13 51°14.004 2°55.452 346.3 -999 104 7.1
2010-04-26 08:19:13 51°14.004 2°55.451 346.4 -999 256 7.2
2010-04-26 08:20:13 51°14.004 2°55.452 346.6 -999 262 7.2
2010-04-26 08:21:13 51°14.005 2°55.451 346.8 0.1 257 7.3
2010-04-26 08:22:13 51°14.004 2°55.451 346.2 -999 31 7.2
2010-04-26 08:23:12 51°14.004 2°55.451 346.2 -999 138 5.4
2010-04-26 08:24:13 51°14.004 2°55.45 346.4 -999 10 7.3
2010-04-26 08:25:12 51°14.005 2°55.45 346.8 -999 239 7.3
2010-04-26 08:26:13 51°14.005 2°55.45 346.6 -999 96 5.5
2010-04-26 08:27:12 51°14.005 2°55.45 346.8 -999 219 7.4
2010-04-26 08:28:13 51°14.005 2°55.45 346.9 -999 146 7.5
2010-04-26 08:29:13 51°14.005 2°55.45 346.7 -999 64 7.5
2010-04-26 08:30:13 51°14.005 2°55.451 346.8 -999 298 7.5
2010-04-26 08:31:13 51°14.005 2°55.45 347 -999 142 7.5
2010-04-26 08:32:12 51°14.005 2°55.45 347.1 -999 164 7.6
2010-04-26 08:33:13 51°14.005 2°55.45 347.1 0.1 249 7.6
2010-04-26 08:34:12 51°14.006 2°55.451 346.4 -999 125 7.6
2010-04-26 08:35:12 51°14.005 2°55.45 346.7 -999 176 7.6
2010-04-26 08:36:12 51°14.004 2°55.45 347.2 -999 175 7.7
2010-04-26 08:37:12 51°14.005 2°55.45 347.1 -999 88 7.7
2010-04-26 08:38:12 51°14.005 2°55.451 347.2 -999 303 7.8
2010-04-26 08:39:12 51°14.005 2°55.451 347.3 -999 291 7.8
2010-04-26 08:40:12 51°14.004 2°55.451 346.6 -999 223 7.7
2010-04-26 08:41:12 51°14.004 2°55.451 346.9 -999 115 7.8
2010-04-26 08:42:12 51°14.005 2°55.451 346.5 0.1 235 7.8
2010-04-26 08:43:12 51°14.005 2°55.451 347 -999 8 7.9
2010-04-26 08:44:12 51°14.004 2°55.451 345.9 0.1 28 7.8
2010-04-26 08:45:12 51°14.004 2°55.451 347 -999 207 7.9
2010-04-26 08:46:12 51°14.004 2°55.451 346 -999 227 7.8
2010-04-26 08:47:12 51°14.005 2°55.451 346.4 -999 53 7.9
2010-04-26 08:48:12 51°14.005 2°55.451 347.5 -999 354 8.1
2010-04-26 08:49:12 51°14.005 2°55.452 347.7 -999 26 8.1
2010-04-26 08:50:12 51°14.004 2°55.452 347.6 -999 145 8.1
2010-04-26 08:51:12 51°14.003 2°55.452 347.2 -999 201 8.1
2010-04-26 08:52:12 51°14.003 2°55.452 346.7 -999 327 8.1
2010-04-26 08:53:12 51°14.004 2°55.452 346.4 0.1 220 8.1
2010-04-26 08:54:12 51°14.004 2°55.452 346.2 -999 120 8.1
2010-04-26 08:55:12 51°14.004 2°55.452 346.1 -999 36 8.1
2010-04-26 08:56:12 51°14.006 2°55.453 346 -999 199 8.1
2010-04-26 08:57:12 51°14.003 2°55.452 346.3 0.1 10 8.2
2010-04-26 08:58:12 51°14.003 2°55.452 347.4 0.1 -999 8.3
2010-04-26 08:59:12 51°14.003 2°55.452 347.7 -999 59 8.4
2010-04-26 09:00:12 51°14.001 2°55.451 347.7 -999 145 8.4
2010-04-26 09:01:12 51°14.002 2°55.451 347.7 -999 124 8.4
2010-04-26 09:02:12 51°14.004 2°55.451 347.7 -999 122 8.4
2010-04-26 09:03:12 51°14.003 2°55.45 347.4 -999 342 8.4
2010-04-26 09:04:12 51°14.009 2°55.451 347.3 -999 71 8.5
2010-04-26 09:05:12 51°13.998 2°55.45 347.4 -999 126 8.4
2010-04-26 09:06:12 51°14.004 2°55.451 347.6 -999 75 8.5
2010-04-26 09:07:13 51°14.005 2°55.45 347.4 -999 274 8.5
2010-04-26 09:08:12 51°14.005 2°55.451 347.7 -999 125 8.5
2010-04-26 09:09:12 51°14.006 2°55.451 347.6 -999 306 8.5
2010-04-26 09:10:12 51°14.006 2°55.451 347.6 -999 283 8.6
2010-04-26 09:11:12 51°14.006 2°55.451 347.5 -999 172 8.6
2010-04-26 09:12:12 51°14.005 2°55.451 347.7 -999 225 8.6
2010-04-26 09:13:12 51°14.01 2°55.452 347.7 -999 49 8.6
2010-04-26 09:14:12 51°14.01 2°55.453 347.7 -999 348 8.7
2010-04-26 09:15:12 51°14.009 2°55.453 347.5 -999 88 8.7
2010-04-26 09:16:12 51°14.008 2°55.452 347.6 -999 193 8.7
2010-04-26 09:17:12 51°14.006 2°55.452 347.7 -999 172 8.7
2010-04-26 09:18:12 51°14.005 2°55.452 347.7 -999 235 8.7
2010-04-26 09:19:12 51°14.005 2°55.452 347.7 -999 76 8.8
2010-04-26 09:20:12 51°14.004 2°55.452 347.7 -999 314 8.8
2010-04-26 09:21:12 51°14.004 2°55.452 347.7 -999 147 8.8
2010-04-26 09:22:12 51°14.009 2°55.453 347.3 -999 240 8.8
2010-04-26 09:23:12 51°14.005 2°55.452 347.4 0.1 219 8.8
2010-04-26 09:24:12 51°14.009 2°55.453 347.6 -999 158 8.8
2010-04-26 09:25:12 51°14.002 2°55.452 347.1 0.1 210 8.7
2010-04-26 09:26:12 51°14.004 2°55.452 346.7 -999 119 8.8
2010-04-26 09:27:12 51°14.004 2°55.452 346.5 0.1 289 8.7
2010-04-26 09:28:12 51°14.003 2°55.452 347 -999 46 8.8
2010-04-26 09:29:12 51°14.002 2°55.452 346.7 -999 192 8.8
2010-04-26 09:30:12 51°14.001 2°55.451 346.3 0.1 346 8.7
2010-04-26 09:31:12 51°14.007 2°55.452 347.7 -999 248 8.9
2010-04-26 09:32:12 51°14.005 2°55.451 347.7 -999 340 8.9
2010-04-26 09:33:12 51°14.004 2°55.452 347.2 -999 185 8.9
2010-04-26 09:34:12 51°14.003 2°55.452 345.7 -999 67 8.8
2010-04-26 09:35:12 51°14 2°55.455 352.5 0.1 74 8.8
2010-04-26 09:36:12 51°14.034 2°55.452 353 5 352 11.3
2010-04-26 09:37:12 51°14.172 2°55.385 337.6 10.5 335 13.7
2010-04-26 09:38:12 51°14.345 2°55.22 331.7 13.2 332 13.6
2010-04-26 09:39:12 51°14.55 2°55.065 331 14.1 337 13.1
2010-04-26 09:40:12 51°14.75 2°54.889 323.5 13.6 330 12.4
2010-04-26 09:41:12 51°14.93 2°54.679 309.8 13 317 11.9
2010-04-26 09:42:12 51°15.086 2°54.442 321.4 13.4 332 12.4
2010-04-26 09:43:12 51°15.319 2°54.424 5.5 15.2 15 11.8
2010-04-26 09:44:13 51°15.51 2°54.693 59.1 15.5 61 12.2
2010-04-26 09:45:13 51°15.636 2°55.054 58 15.6 55 12
2010-04-26 09:46:12 51°15.784 2°55.387 55.4 15.5 58 12.2
2010-04-26 09:47:12 51°15.936 2°55.727 55 15.8 53 12.2
2010-04-26 09:48:12 51°16.093 2°56.07 53.3 16 54 12.4
2010-04-26 09:49:13 51°16.233 2°56.441 60.9 16.1 63 12.4
2010-04-26 09:50:12 51°16.364 2°56.807 60.3 16.1 57 12.2
2010-04-26 09:51:12 51°16.498 2°57.169 60.2 15.9 60 12.3
2010-04-26 09:52:12 51°16.629 2°57.529 61.2 15.9 61 12.6
2010-04-26 09:53:12 51°16.761 2°57.894 60.7 16.1 61 12.4
2010-04-26 09:54:12 51°16.894 2°58.263 60.7 15.8 59 12.2
2010-04-26 09:55:12 51°17.028 2°58.624 59.9 15.9 61 12.3
2010-04-26 09:56:12 51°17.163 2°58.991 60.1 16.1 59 12.1
2010-04-26 09:57:12 51°17.299 2°59.357 60.9 16.1 61 12.1
2010-04-26 09:58:12 51°17.434 2°59.724 60.3 16.2 61 12.1
2010-04-26 09:59:12 51°17.571 3°0.094 60.3 16.2 59 12
2010-04-26 10:00:12 51°17.708 3°0.466 59.4 16.1 58 11.8
2010-04-26 10:01:12 51°17.845 3°0.837 61.6 16.1 60 11.9
2010-04-26 10:02:12 51°17.986 3°1.206 59.7 16.2 58 11.7
2010-04-26 10:03:12 51°18.156 3°1.542 48.5 16.3 50 11.8
2010-04-26 10:04:12 51°18.337 3°1.86 45.9 16.3 51 11.4
2010-04-26 10:05:12 51°18.527 3°2.162 43.6 16.2 49 10.7
2010-04-26 10:06:11 51°18.715 3°2.447 43.2 15.7 40 10.4
2010-04-26 10:07:12 51°18.902 3°2.748 46 15.9 50 10.7
2010-04-26 10:08:12 51°19.087 3°3.042 46 15.8 47 10.9
2010-04-26 10:09:12 51°19.282 3°3.325 39.5 16.1 42 11.2
2010-04-26 10:10:12 51°19.484 3°3.606 38.4 15.9 42 10.6
2010-04-26 10:11:12 51°19.683 3°3.874 37 15.7 34 10.5
2010-04-26 10:12:12 51°19.879 3°4.15 37 15.5 44 10.3
2010-04-26 10:13:12 51°20.074 3°4.428 39.7 15.9 45 10.4
2010-04-26 10:14:13 51°20.273 3°4.712 39.3 15.8 36 10.2
2010-04-26 10:15:12 51°20.464 3°4.985 40.9 15.8 39 10
2010-04-26 10:16:12 51°20.659 3°5.258 40 15.4 36 10.3
2010-04-26 10:17:12 51°20.853 3°5.534 38.9 15.6 43 11.2
2010-04-26 10:18:12 51°21.049 3°5.814 38.7 16 41 11.8
2010-04-26 10:19:12 51°21.247 3°6.105 39.1 16.3 44 12.5
2010-04-26 10:20:12 51°21.445 3°6.399 41.5 16.4 43 13
2010-04-26 10:21:13 51°21.645 3°6.692 41.5 15.9 40 13.6
2010-04-26 10:22:12 51°21.83 3°6.983 49.8 15.4 51 14.1
2010-04-26 10:23:13 51°21.983 3°7.334 57.1 16.1 56 14.5
2010-04-26 10:24:12 51°22.126 3°7.687 56.2 15.9 55 15
2010-04-26 10:25:13 51°22.276 3°8.049 56 16.2 59 15.1
2010-04-26 10:26:12 51°22.424 3°8.397 56.2 16.3 56 15.4
2010-04-26 10:27:12 51°22.572 3°8.755 63.4 16.1 63 15.8
2010-04-26 10:28:13 51°22.655 3°9.173 82.9 16.1 79 16.1
2010-04-26 10:29:12 51°22.679 3°9.586 89 16.2 86 16.1
2010-04-26 10:30:13 51°22.698 3°10.016 89.9 15.9 87 21.2
2010-04-26 10:31:12 51°22.711 3°10.43 88.6 15.6 85 17.3
2010-04-26 10:32:13 51°22.725 3°10.74 90.5 9.3 86 17.2
2010-04-26 10:33:12 51°22.739 3°10.955 90.4 7.7 85 17
2010-04-26 10:34:12 51°22.723 3°11.118 140.9 5.3 115 16.8
2010-04-26 10:35:12 51°22.659 3°11.222 172.7 6.2 144 17.5
2010-04-26 10:36:12 51°22.575 3°11.28 207.8 4.4 185 18.3
2010-04-26 10:37:13 51°22.56 3°11.237 282 1.7 328 18.3
2010-04-26 10:38:12 51°22.59 3°11.262 319.6 2.5 40 18.4
2010-04-26 10:39:13 51°22.62 3°11.311 322.3 2.5 52 18.1
2010-04-26 10:40:12 51°22.644 3°11.367 325.3 2.6 58 17.4
2010-04-26 10:41:13 51°22.667 3°11.43 327.2 2.7 62 16.8
2010-04-26 10:42:12 51°22.685 3°11.496 326.5 2.8 68 17.4
2010-04-26 10:43:12 51°22.702 3°11.566 331 3 70 17.3
2010-04-26 10:44:12 51°22.718 3°11.64 337.8 2.9 73 16.8
2010-04-26 10:45:13 51°22.733 3°11.715 342.4 2.9 73 17.2
2010-04-26 10:46:13 51°22.746 3°11.789 347.3 2.9 75 17
2010-04-26 10:47:12 51°22.759 3°11.862 350 2.9 75 16.7
2010-04-26 10:48:13 51°22.773 3°11.939 352.5 2.9 74 16.4
2010-04-26 10:49:12 51°22.786 3°12.011 352.1 2.9 75 16.6
2010-04-26 10:50:12 51°22.798 3°12.086 354.4 2.8 75 16.2
2010-04-26 10:51:12 51°22.831 3°12.165 25.8 4.7 50 15.7
2010-04-26 10:52:12 51°22.862 3°12.306 97.3 6.1 91 15.7
2010-04-26 10:53:12 51°22.826 3°12.436 163 5 133 16
2010-04-26 10:54:12 51°22.758 3°12.5 191 4.5 164 15.9
2010-04-26 10:55:12 51°22.69 3°12.491 226.7 3.7 212 16.1
2010-04-26 10:56:12 51°22.657 3°12.395 250.8 5.3 247 16.2
2010-04-26 10:57:12 51°22.621 3°12.252 250.8 6.1 250 16.5
2010-04-26 10:58:12 51°22.584 3°12.098 251 6.3 249 17
2010-04-26 10:59:12 51°22.546 3°11.942 250.7 6.3 250 17.8
2010-04-26 11:00:12 51°22.509 3°11.783 250.5 6.4 249 17.9
2010-04-26 11:01:08 51°22.473 3°11.633 251.2 6.4 250 18.4
2010-04-26 11:02:14 51°22.462 3°11.506 286.9 2.8 310 18.5
2010-04-26 11:04:02 51°22.527 3°11.509 324.3 2.4 35 18.2
2010-04-26 11:05:02 51°22.555 3°11.548 324.8 2.3 46 18.2
2010-04-26 11:06:02 51°22.579 3°11.598 328.5 2.4 56 17.5
2010-04-26 11:07:02 51°22.599 3°11.654 337 2.5 63 17.8
2010-04-26 11:08:03 51°22.617 3°11.716 343.9 2.5 67 17.6
2010-04-26 11:09:02 51°22.633 3°11.777 349.7 2.6 69 17.4
2010-04-26 11:10:02 51°22.648 3°11.839 352.7 2.5 70 17.2
2010-04-26 11:11:02 51°22.663 3°11.903 356.7 2.4 69 16.8
2010-04-26 11:12:02 51°22.678 3°11.966 356.7 2.6 71 17
2010-04-26 11:13:02 51°22.693 3°12.03 357.2 2.6 69 16.5
2010-04-26 11:14:02 51°22.708 3°12.094 356.8 2.6 70 16.7
2010-04-26 11:15:02 51°22.723 3°12.156 355.8 2.5 70 16.5
2010-04-26 11:16:02 51°22.737 3°12.219 355.7 2.5 70 16.5
2010-04-26 11:17:03 51°22.751 3°12.284 355.9 2.5 72 16.3
2010-04-26 11:18:02 51°22.764 3°12.347 355.3 2.5 73 16.3
2010-04-26 11:19:02 51°22.777 3°12.411 356.8 2.5 73 16
2010-04-26 11:20:02 51°22.789 3°12.475 358.8 2.4 74 15.9
2010-04-26 11:21:02 51°22.801 3°12.54 359.4 2.5 74 15.7
2010-04-26 11:22:02 51°22.813 3°12.604 -999 2.4 74 15.3
2010-04-26 11:23:02 51°22.831 3°12.665 347.2 2.7 49 15.2
2010-04-26 11:24:03 51°22.866 3°12.7 311 2.1 19 14.9
2010-04-26 11:25:02 51°22.888 3°12.706 273.9 0.8 1 15
2010-04-26 11:26:04 51°22.886 3°12.71 234.6 0.8 169 14.8
2010-04-26 11:27:02 51°22.866 3°12.701 240.3 1.5 218 15
2010-04-26 11:28:02 51°22.851 3°12.663 249.8 2 242 15.2
2010-04-26 11:29:02 51°22.834 3°12.615 245.9 2.2 238 15.3
2010-04-26 11:30:02 51°22.814 3°12.563 247.1 2.3 240 15.4
2010-04-26 11:31:02 51°22.796 3°12.506 248.4 2.5 243 15.6
2010-04-26 11:32:02 51°22.776 3°12.449 247.3 2.4 241 15.7
2010-04-26 11:33:02 51°22.756 3°12.392 248.4 2.5 243 15.8
2010-04-26 11:34:02 51°22.738 3°12.333 248.5 2.5 243 16
2010-04-26 11:35:03 51°22.72 3°12.273 248.8 2.5 244 16
2010-04-26 11:36:03 51°22.702 3°12.211 248.9 2.6 245 16.1
2010-04-26 11:37:03 51°22.682 3°12.148 247.6 2.7 242 16.5
2010-04-26 11:38:03 51°22.654 3°12.058 248.3 6.5 247 16.7
2010-04-26 11:39:03 51°22.59 3°11.807 248.5 11.9 249 17.2
2010-04-26 11:40:03 51°22.515 3°11.51 248.3 12 247 17.9
2010-04-26 11:41:03 51°22.439 3°11.217 248.2 11.9 248 18
2010-04-26 11:42:03 51°22.365 3°10.925 248.3 11.9 248 18.8
2010-04-26 11:43:04 51°22.29 3°10.624 248.1 12.1 249 20.6
2010-04-26 11:44:03 51°22.218 3°10.329 248.7 12.1 248 17.3
2010-04-26 11:45:03 51°22.145 3°10.03 248.3 12.1 248 16.8
2010-04-26 11:46:03 51°22.07 3°9.734 248.3 11.8 249 15.9
2010-04-26 11:47:03 51°21.98 3°9.457 237 11.8 235 15.2
2010-04-26 11:48:03 51°21.848 3°9.222 228.4 11.9 226 14.3
2010-04-26 11:49:03 51°21.712 3°8.987 228.8 12.1 228 13.4
2010-04-26 11:50:04 51°21.575 3°8.742 229.7 12.1 228 12.5
2010-04-26 11:51:03 51°21.444 3°8.503 230.1 12.3 230 12
2010-04-26 11:52:02 51°21.312 3°8.258 229.6 12.4 228 11.3
2010-04-26 11:53:04 51°21.176 3°8.004 230.2 12.2 228 10.8
2010-04-26 11:54:02 51°21.049 3°7.766 230.1 12.2 229 10.5
2010-04-26 11:55:02 51°20.916 3°7.519 229.5 12.3 230 10.4
2010-04-26 11:56:02 51°20.783 3°7.27 230.2 12.3 229 10
2010-04-26 11:57:02 51°20.65 3°7.021 230.2 12.5 230 10.2
2010-04-26 11:58:02 51°20.516 3°6.77 230.6 12.4 229 10.2
2010-04-26 11:59:02 51°20.383 3°6.526 230.3 12.1 229 10.1
2010-04-26 12:00:02 51°20.249 3°6.281 230.1 12.3 229 10.3
2010-04-26 12:01:04 51°20.111 3°6.027 230.6 12.3 230 10.3
2010-04-26 12:02:03 51°19.98 3°5.784 230.2 12.4 229 10.4
2010-04-26 12:03:03 51°19.844 3°5.532 230.4 12.6 228 10.3
2010-04-26 12:04:03 51°19.708 3°5.28 230.6 12.4 227 10.2
2010-04-26 12:05:02 51°19.576 3°5.033 230.7 12.5 229 10.1
2010-04-26 12:06:03 51°19.439 3°4.776 230.3 12.5 230 10
2010-04-26 12:07:03 51°19.305 3°4.524 230.4 12.4 230 10
2010-04-26 12:08:03 51°19.172 3°4.276 230.5 12.2 230 10.3
2010-04-26 12:09:02 51°19.041 3°4.036 230.5 12.1 229 10.7
2010-04-26 12:10:03 51°18.907 3°3.79 229.7 12.2 229 11.2
2010-04-26 12:11:03 51°18.788 3°3.535 239.1 12 239 10.7
2010-04-26 12:12:02 51°18.694 3°3.262 241.4 11.9 241 10.8
2010-04-26 12:13:04 51°18.595 3°2.974 241.1 11.9 241 10.9
2010-04-26 12:14:02 51°18.502 3°2.705 240.6 12 240 11
2010-04-26 12:15:02 51°18.406 3°2.426 240.8 11.9 240 10.9
2010-04-26 12:16:02 51°18.309 3°2.146 240.4 12 241 11
2010-04-26 12:17:02 51°18.212 3°1.865 240.6 12.1 241 11
2010-04-26 12:18:03 51°18.114 3°1.581 240.2 12 240 11.3
2010-04-26 12:19:02 51°18.019 3°1.307 240.2 12 241 11.5
2010-04-26 12:20:02 51°17.924 3°1.028 240.3 12 241 11.3
2010-04-26 12:21:02 51°17.827 3°0.749 240.6 12.1 240 11.3
2010-04-26 12:22:02 51°17.73 3°0.468 240.4 12 242 11.3
2010-04-26 12:23:02 51°17.634 3°0.192 240.5 11.9 241 11.5
2010-04-26 12:24:02 51°17.538 2°59.913 240.3 12 242 11.4
2010-04-26 12:25:03 51°17.415 2°59.655 229.4 12.2 229 11.5
2010-04-26 12:26:03 51°17.265 2°59.433 223.6 12.3 225 11.5
2010-04-26 12:27:02 51°17.12 2°59.21 226.5 12.2 230 11.6
2010-04-26 12:28:02 51°17.023 2°58.923 246.2 12.4 248 11.5
2010-04-26 12:29:02 51°16.946 2°58.616 247.1 12.4 248 11.5
2010-04-26 12:30:02 51°16.866 2°58.311 246.4 12.5 248 11.6
2010-04-26 12:31:02 51°16.776 2°58.014 240.6 12.4 240 11.8
2010-04-26 12:32:02 51°16.67 2°57.732 238.1 12.5 238 11.7
2010-04-26 12:33:02 51°16.56 2°57.452 238.6 12.4 239 11.6
2010-04-26 12:34:02 51°16.449 2°57.174 236 12.4 237 11.6
2010-04-26 12:35:02 51°16.329 2°56.906 235.3 12.4 235 11.4
2010-04-26 12:36:03 51°16.204 2°56.637 232.2 12.4 230 11.3
2010-04-26 12:37:03 51°16.069 2°56.389 229.7 12.3 229 11.1
2010-04-26 12:38:03 51°15.936 2°56.141 230.2 12.3 230 10.9
2010-04-26 12:39:03 51°15.804 2°55.892 229.9 12.2 230 10.6
2010-04-26 12:40:03 51°15.672 2°55.643 229.8 12.2 230 10.5
2010-04-26 12:41:03 51°15.543 2°55.392 230.3 12.3 231 10.4
2010-04-26 12:42:03 51°15.399 2°55.162 220.5 12.3 219 10.4
2010-04-26 12:43:03 51°15.239 2°54.96 214.5 12.4 214 10.4
2010-04-26 12:44:02 51°15.062 2°54.805 212 12.3 212 10.6
2010-04-26 12:45:03 51°14.888 2°54.623 214.9 12.5 214 13.8
2010-04-26 12:46:03 51°14.718 2°54.438 214.9 12.4 215 11.7
2010-04-26 12:47:03 51°14.575 2°54.209 235 12.3 238 11.6
2010-04-26 12:48:03 51°14.464 2°53.933 236.2 12.4 237 11.5
2010-04-26 12:49:03 51°14.334 2°53.678 226.3 12.4 226 11.6
2010-04-26 12:50:03 51°14.19 2°53.444 227.4 12.4 228 11.6
2010-04-26 12:51:04 51°14.056 2°53.186 230.4 12.4 231 11.6
2010-04-26 12:52:03 51°13.94 2°52.92 240 12.5 242 11.8
2010-04-26 12:53:03 51°13.847 2°52.623 242.8 12.5 244 12
2010-04-26 12:54:02 51°13.754 2°52.332 241.8 12.6 243 12.2
2010-04-26 12:55:02 51°13.652 2°52.042 236.9 12.5 238 12.4
2010-04-26 12:56:02 51°13.534 2°51.769 235.2 12.5 235 12.3
2010-04-26 12:57:02 51°13.428 2°51.53 235 7.9 236 12.6
2010-04-26 12:58:03 51°13.419 2°51.402 286.8 3.4 301 12.8
2010-04-26 12:59:03 51°13.451 2°51.387 335.4 1.7 23 12.6
2010-04-26 13:00:03 51°13.477 2°51.413 355.2 1.8 36 12.7
2010-04-26 13:01:03 51°13.499 2°51.441 349.9 1.6 42 12.5
2010-04-26 13:02:03 51°13.519 2°51.47 346.1 1.6 44 12.7
2010-04-26 13:03:03 51°13.536 2°51.499 344.8 1.5 49 12.7
2010-04-26 13:04:03 51°13.552 2°51.53 347.8 1.5 54 12.8
2010-04-26 13:05:03 51°13.566 2°51.562 351.3 1.5 57 12.6
2010-04-26 13:06:03 51°13.578 2°51.594 355.5 1.4 58 12.3
2010-04-26 13:07:04 51°13.59 2°51.627 358.7 1.4 64 12.4
2010-04-26 13:08:03 51°13.6 2°51.659 -999 1.4 64 12.5
2010-04-26 13:09:03 51°13.618 2°51.692 4.1 2.5 31 12.5
2010-04-26 13:10:03 51°13.662 2°51.764 65.6 4.6 66 12.3
2010-04-26 13:11:03 51°13.642 2°51.879 146.2 5.3 137 12.3
2010-04-26 13:12:03 51°13.55 2°51.974 159.7 7.9 151 12
2010-04-26 13:13:03 51°13.424 2°52.087 160.1 8.9 155 11.5
2010-04-26 13:14:03 51°13.306 2°52.163 167.5 5.7 164 11
2010-04-26 13:15:03 51°13.239 2°52.159 202.2 3.6 194 11
2010-04-26 13:16:04 51°13.193 2°52.129 217.9 2.6 210 10.8
2010-04-26 13:17:03 51°13.161 2°52.084 231 2.8 229 10.8
2010-04-26 13:18:03 51°13.132 2°52.016 242.1 3.3 243 10.8
2010-04-26 13:19:03 51°13.11 2°51.933 245.1 3.5 243 10.8
2010-04-26 13:20:03 51°13.081 2°51.855 238.1 3.4 236 10.7
2010-04-26 13:21:03 51°13.05 2°51.78 238.3 3.3 237 10.7
2010-04-26 13:22:03 51°13.024 2°51.703 244.3 3.4 243 10.8
2010-04-26 13:23:03 51°12.998 2°51.623 241.8 3.4 242 10.9
2010-04-26 13:24:04 51°12.97 2°51.542 241.5 3.4 242 10.8
2010-04-26 13:25:03 51°12.944 2°51.463 240.7 3.4 240 10.8
2010-04-26 13:26:03 51°12.916 2°51.386 240.5 3.3 241 10.8
2010-04-26 13:27:02 51°12.889 2°51.311 241.4 3.4 241 10.7
2010-04-26 13:28:03 51°12.861 2°51.232 241.3 3.4 240 10.6
2010-04-26 13:29:03 51°12.834 2°51.154 241.6 3.4 241 10.6
2010-04-26 13:30:03 51°12.803 2°51.079 237.8 3.4 236 10.6
2010-04-26 13:31:03 51°12.773 2°51.003 240.4 3.4 240 10.5
2010-04-26 13:32:03 51°12.744 2°50.923 240.2 3.5 239 10.6
2010-04-26 13:33:04 51°12.714 2°50.842 240.3 3.5 239 10.7
2010-04-26 13:34:02 51°12.685 2°50.766 239.2 3.5 238 10.6
2010-04-26 13:35:03 51°12.653 2°50.688 237.9 3.5 236 10.4
2010-04-26 13:36:03 51°12.622 2°50.61 239.9 3.5 240 10.4
2010-04-26 13:37:03 51°12.593 2°50.529 242.8 3.6 243 10.4
2010-04-26 13:38:04 51°12.564 2°50.443 242.6 3.6 243 10.4
2010-04-26 13:39:03 51°12.537 2°50.36 242.4 3.6 242 10.3
2010-04-26 13:40:03 51°12.509 2°50.275 242.5 3.6 242 10.5
2010-04-26 13:41:03 51°12.48 2°50.192 242 3.6 242 10.3
2010-04-26 13:42:04 51°12.447 2°50.109 233.1 3.6 232 10.3
2010-04-26 13:43:02 51°12.408 2°50.039 229.9 3.6 228 10.2
2010-04-26 13:44:02 51°12.371 2°49.964 234.5 3.6 234 10.2
2010-04-26 13:45:03 51°12.338 2°49.883 236.9 3.6 237 10.2
2010-04-26 13:46:03 51°12.306 2°49.802 237.1 3.7 240 10.2
2010-04-26 13:47:03 51°12.294 2°49.709 268.4 3.7 274 10
2010-04-26 13:48:03 51°12.304 2°49.612 280.9 3.7 286 10
2010-04-26 13:49:03 51°12.331 2°49.523 297.2 3.8 302 10.1
2010-04-26 13:50:03 51°12.374 2°49.448 316.4 3.9 323 10.3
2010-04-26 13:51:03 51°12.432 2°49.397 330.4 4 336 10.9
2010-04-26 13:52:03 51°12.491 2°49.383 0.3 3.4 6 11.5
2010-04-26 13:53:04 51°12.552 2°49.411 21.6 4.1 25 11.8
2010-04-26 13:54:04 51°12.6 2°49.459 37.4 3 38 11.9
2010-04-26 13:55:03 51°12.632 2°49.505 39.6 2.3 41 12
2010-04-26 13:56:03 51°12.661 2°49.539 31.9 2 35 11.9
2010-04-26 13:57:03 51°12.684 2°49.567 27.8 1.6 37 12.2
2010-04-26 13:58:03 51°12.704 2°49.589 22.8 1.3 34 11.9
2010-04-26 13:59:02 51°12.72 2°49.607 18.8 1.1 34 12.3
2010-04-26 14:00:03 51°12.734 2°49.623 12.4 0.9 33 12.2
2010-04-26 14:01:03 51°12.745 2°49.635 6.7 0.8 37 12.3
2010-04-26 14:02:02 51°12.754 2°49.646 1.7 0.7 45 12.4
2010-04-26 14:03:03 51°12.761 2°49.657 358.8 0.5 41 12.2
2010-04-26 14:04:02 51°12.767 2°49.666 354.6 0.5 49 12.3
2010-04-26 14:05:02 51°12.772 2°49.677 354 0.5 56 12.2
2010-04-26 14:06:03 51°12.778 2°49.688 354.6 0.6 58 12
2010-04-26 14:07:02 51°12.783 2°49.7 357.2 0.6 59 12.4
2010-04-26 14:08:02 51°12.787 2°49.712 1.5 0.5 63 12.2
2010-04-26 14:09:02 51°12.79 2°49.723 3.8 0.5 67 12.3
2010-04-26 14:10:03 51°12.793 2°49.735 7.3 0.5 68 12.3
2010-04-26 14:11:03 51°12.798 2°49.749 11.1 0.9 39 12.3
2010-04-26 14:12:02 51°12.824 2°49.768 18.7 2.4 23 12.1
2010-04-26 14:13:03 51°12.866 2°49.804 40.9 3 42 12.1
2010-04-26 14:14:03 51°12.897 2°49.875 63.9 3.5 61 12
2010-04-26 14:15:02 51°12.923 2°49.961 66.6 3.8 65 12
2010-04-26 14:16:03 51°12.955 2°50.053 60.1 4 58 12
2010-04-26 14:17:03 51°12.99 2°50.143 59.7 4 58 11.9
2010-04-26 14:18:02 51°13.025 2°50.233 60.3 4.1 59 11.9
2010-04-26 14:19:02 51°13.059 2°50.324 60.4 4 60 11.9
2010-04-26 14:20:02 51°13.092 2°50.416 60.6 4 60 11.8
2010-04-26 14:21:04 51°13.128 2°50.51 59.6 4 59 11.8
2010-04-26 14:22:02 51°13.162 2°50.597 59.9 4 59 11.8
2010-04-26 14:23:02 51°13.197 2°50.69 60.7 4.3 59 11.6
2010-04-26 14:24:02 51°13.234 2°50.792 61.1 4.5 61 11.6
2010-04-26 14:25:02 51°13.273 2°50.899 59.7 4.7 57 11.4
2010-04-26 14:26:02 51°13.314 2°51.006 60.5 4.7 60 11.4
2010-04-26 14:27:02 51°13.355 2°51.113 60.3 4.7 59 11.4
2010-04-26 14:28:02 51°13.394 2°51.221 60.5 4.7 59 11.3
2010-04-26 14:29:02 51°13.436 2°51.328 59.7 4.7 58 11.2
2010-04-26 14:30:01 51°13.476 2°51.433 60.2 4.7 59 11.2
2010-04-26 14:31:02 51°13.517 2°51.543 60.9 4.8 59 11
2010-04-26 14:32:02 51°13.559 2°51.651 60 4.7 59 11
2010-04-26 14:33:02 51°13.6 2°51.759 60.3 4.8 59 11.2
2010-04-26 14:34:02 51°13.641 2°51.87 60.2 4.8 60 10.9
2010-04-26 14:35:02 51°13.681 2°51.981 59.9 5.2 59 10.9
2010-04-26 14:36:03 51°13.734 2°52.124 60.8 6.6 61 10.8
2010-04-26 14:37:02 51°13.791 2°52.281 60.5 7.1 58 10.7
2010-04-26 14:38:02 51°13.852 2°52.443 60.5 7.2 58 10.6
2010-04-26 14:39:01 51°13.912 2°52.604 60.4 7.2 58 10.6
2010-04-26 14:40:02 51°13.975 2°52.772 60.3 7.3 59 10.6
2010-04-26 14:41:04 51°14.04 2°52.944 60.3 7.3 58 10.5
2010-04-26 14:42:01 51°14.1 2°53.103 60.1 7.3 59 10.4
2010-04-26 14:43:02 51°14.164 2°53.269 59.7 7.1 58 10.2
2010-04-26 14:44:02 51°14.225 2°53.43 60.4 7.1 59 10
2010-04-26 14:45:02 51°14.284 2°53.593 60.4 7.1 61 9.8
2010-04-26 14:46:02 51°14.346 2°53.754 59.6 7.1 59 9.7
2010-04-26 14:47:03 51°14.408 2°53.916 60.7 7 59 9.6
2010-04-26 14:48:02 51°14.466 2°54.069 60.1 6.8 58 9.7
2010-04-26 14:49:02 51°14.525 2°54.221 60.4 6.6 58 9.9
2010-04-26 14:50:02 51°14.581 2°54.37 60.3 6.5 58 9.9
2010-04-26 14:51:02 51°14.63 2°54.521 70.1 7.3 73 9.9
2010-04-26 14:52:02 51°14.617 2°54.758 103 9.9 109 9.8
2010-04-26 14:53:02 51°14.529 2°54.99 127.9 10.7 134 11.6
2010-04-26 14:54:02 51°14.386 2°55.164 146.2 10.9 145 10.4
2010-04-26 14:55:02 51°14.234 2°55.32 148.7 10.7 150 10.8
2010-04-26 14:56:04 51°14.076 2°55.446 153.5 9.1 154 10.4
2010-04-26 14:57:03 51°13.967 2°55.535 156.3 6.3 156 10.9
2010-04-26 14:58:02 51°13.879 2°55.599 155.8 5.8 155 10.6
2010-04-26 14:59:04 51°13.8 2°55.658 151.7 4.3 150 10.6
2010-04-26 15:00:04 51°13.751 2°55.722 134.3 3.9 132 10.7
2010-04-26 15:01:05 51°13.706 2°55.815 127.8 4.4 126 -999